createdAt,value
2022-11-02T00:00:43.695Z,1198.63
2022-11-02T00:03:13.569Z,1247.70
2022-11-02T00:05:43.488Z,1252.80
2022-11-02T00:08:13.394Z,1185.57
2022-11-02T00:10:43.211Z,1237.03
2022-11-02T00:13:14.422Z,1169.60
2022-11-02T00:15:44.349Z,1171.23
2022-11-02T00:18:16.445Z,1161.23
2022-11-02T00:20:46.608Z,1210.13
2022-11-02T00:23:17.195Z,1200.43
2022-11-02T00:25:49.978Z,1246.77
2022-11-02T00:28:21.329Z,1272.57
2022-11-02T00:30:51.401Z,1198.30
2022-11-02T00:33:21.318Z,1323.40
2022-11-02T00:35:51.962Z,1296.47
2022-11-02T00:38:21.834Z,1178.70
2022-11-02T00:40:51.695Z,1214.27
2022-11-02T00:43:22.878Z,1277.97
2022-11-02T00:45:52.764Z,1152.73
2022-11-02T00:48:22.623Z,1238.97
2022-11-02T00:50:52.764Z,1240.57
2022-11-02T00:53:25.677Z,1186.40
2022-11-02T00:55:57.570Z,1291.73
2022-11-02T00:58:28.861Z,1196.40
2022-11-02T01:00:59.074Z,1246.17
2022-11-02T01:03:29.076Z,1213.57
2022-11-02T01:05:58.934Z,1242.10
2022-11-02T01:08:28.984Z,1239.40
2022-11-02T01:11:10.418Z,1268.77
2022-11-02T01:13:41.615Z,1221.00
2022-11-02T01:16:12.504Z,1241.40
2022-11-02T01:18:43.453Z,1266.03
2022-11-02T01:21:13.324Z,1212.13
2022-11-02T01:23:43.164Z,1200.60
2022-11-02T01:26:14.209Z,1200.77
2022-11-02T01:28:45.709Z,1210.80
2022-11-02T01:31:16.200Z,1227.73
2022-11-02T01:33:46.529Z,1226.23
2022-11-02T01:36:19.909Z,1116.07
2022-11-02T01:38:50.295Z,1293.90
2022-11-02T01:41:20.125Z,1239.90
2022-11-02T01:43:55.614Z,1220.70
2022-11-02T01:46:33.075Z,1211.63
2022-11-02T01:49:06.911Z,1300.33
2022-11-02T01:51:41.005Z,1310.47
2022-11-02T01:54:15.392Z,1313.40
2022-11-02T01:56:50.113Z,1282.53
2022-11-02T01:59:28.051Z,1301.93
2022-11-02T02:01:58.055Z,1238.63
2022-11-02T02:04:29.271Z,1309.70
2022-11-02T02:07:00.948Z,1243.90
2022-11-02T02:09:31.206Z,1163.67
2022-11-02T02:12:01.450Z,1205.20
2022-11-02T02:14:32.673Z,1139.13
2022-11-02T02:17:19.160Z,1146.83
2022-11-02T02:19:57.681Z,1120.60
2022-11-02T02:23:07.521Z,1263.20
2022-11-02T02:25:58.490Z,1209.20
2022-11-02T02:28:35.826Z,1202.53
2022-11-02T02:31:13.400Z,1264.67
2022-11-02T02:33:49.183Z,1247.60
2022-11-02T02:36:25.807Z,1203.53
2022-11-02T02:39:03.395Z,1246.70
2022-11-02T02:41:40.401Z,1229.50
2022-11-02T02:44:17.193Z,1245.73
2022-11-02T02:46:56.078Z,1171.13
2022-11-02T02:49:30.002Z,1225.90
2022-11-02T02:52:01.075Z,1241.33
2022-11-02T02:54:35.489Z,1251.10
2022-11-02T02:57:10.472Z,1190.23
2022-11-02T02:59:43.371Z,1113.57
2022-11-02T03:02:20.167Z,1118.90
2022-11-02T03:04:50.271Z,1062.40
2022-11-02T03:07:29.675Z,1041.57
2022-11-02T03:10:12.672Z,1020.60
2022-11-02T03:12:51.539Z,1084.27
2022-11-02T03:15:31.958Z,1049.83
2022-11-02T03:18:09.919Z,1053.37
2022-11-02T03:20:49.195Z,953.17
2022-11-02T03:23:25.008Z,1040.37
2022-11-02T03:26:03.821Z,1075.10
2022-11-02T03:28:50.011Z,967.70
2022-11-02T03:31:31.281Z,1026.90
2022-11-02T03:34:09.821Z,1062.07
2022-11-02T03:36:46.011Z,1009.70
2022-11-02T03:39:21.163Z,962.10
2022-11-02T03:41:53.130Z,1272.70
2022-11-02T03:44:26.882Z,997.63
2022-11-02T03:47:00.646Z,1039.27
2022-11-02T03:49:33.694Z,967.00
2022-11-02T03:52:09.521Z,962.43
2022-11-02T03:54:44.682Z,969.27
2022-11-02T03:57:20.341Z,966.63
2022-11-02T03:59:51.102Z,965.27
2022-11-02T04:02:22.436Z,891.90
2022-11-02T04:04:54.543Z,913.13
2022-11-02T04:07:58.400Z,864.77
2022-11-02T04:10:30.457Z,962.30
2022-11-02T04:13:18.211Z,970.90
2022-11-02T04:15:48.045Z,984.80
2022-11-02T04:18:36.670Z,1006.40
2022-11-02T04:21:06.591Z,1016.53
2022-11-02T04:23:53.763Z,971.37
2022-11-02T04:26:23.565Z,1078.43
2022-11-02T04:28:53.529Z,1007.97
2022-11-02T04:31:23.362Z,952.57
2022-11-02T04:33:53.697Z,977.40
2022-11-02T04:36:24.091Z,1011.37
2022-11-02T04:38:57.831Z,980.53
2022-11-02T04:41:44.103Z,1036.43
2022-11-02T04:44:28.982Z,1008.50
2022-11-02T04:47:08.727Z,967.77
2022-11-02T04:49:40.490Z,938.67
2022-11-02T04:52:14.486Z,996.60
2022-11-02T04:54:49.474Z,995.73
2022-11-02T04:57:20.702Z,936.87
2022-11-02T04:59:50.906Z,913.07
2022-11-02T05:02:21.772Z,934.60
2022-11-02T05:04:53.065Z,931.13
2022-11-02T05:07:22.862Z,987.93
2022-11-02T05:09:53.402Z,926.77
2022-11-02T05:12:28.115Z,955.63
2022-11-02T05:14:58.975Z,980.87
2022-11-02T05:17:29.093Z,877.57
2022-11-02T05:20:00.385Z,842.90
2022-11-02T05:22:31.404Z,925.47
2022-11-02T05:25:01.482Z,852.30
2022-11-02T05:27:32.291Z,892.13
2022-11-02T05:30:02.099Z,816.87
2022-11-02T05:32:32.495Z,985.67
2022-11-02T05:35:06.244Z,864.80
2022-11-02T05:37:36.610Z,860.70
2022-11-02T05:40:09.230Z,807.67
2022-11-02T05:42:40.059Z,877.87
2022-11-02T05:45:10.679Z,754.50
2022-11-02T05:47:40.433Z,886.17
2022-11-02T05:50:11.644Z,940.07
2022-11-02T05:52:41.441Z,928.53
2022-11-02T05:55:11.233Z,942.23
2022-11-02T05:57:41.006Z,890.30
2022-11-02T06:00:11.947Z,848.17
2022-11-02T06:02:42.130Z,862.73
2022-11-02T06:05:13.493Z,867.73
2022-11-02T06:07:43.326Z,958.40
2022-11-02T06:10:13.185Z,857.90
2022-11-02T06:12:43.054Z,924.40
2022-11-02T06:15:12.811Z,851.57
2022-11-02T06:17:42.804Z,926.13
2022-11-02T06:20:15.514Z,903.97
2022-11-02T06:22:45.679Z,914.63
2022-11-02T06:25:15.869Z,860.73
2022-11-02T06:27:51.723Z,803.83
2022-11-02T06:30:21.655Z,806.80
2022-11-02T06:32:53.367Z,703.80
2022-11-02T06:35:24.565Z,725.57
2022-11-02T06:37:54.344Z,674.93
2022-11-02T06:40:26.512Z,753.83
2022-11-02T06:43:15.440Z,829.23
2022-11-02T06:45:46.682Z,857.23
2022-11-02T06:48:16.504Z,652.17
2022-11-02T06:50:47.597Z,660.73
2022-11-02T06:53:18.325Z,547.40
2022-11-02T06:55:52.977Z,546.93
2022-11-02T06:58:24.123Z,645.13
2022-11-02T07:00:59.443Z,633.13
2022-11-02T07:03:36.991Z,695.73
2022-11-02T07:06:14.197Z,697.40
2022-11-02T07:08:44.257Z,643.93
2022-11-02T07:11:16.031Z,592.33
2022-11-02T07:13:46.018Z,565.10
2022-11-02T07:16:16.088Z,612.00
2022-11-02T07:18:45.957Z,504.67
2022-11-02T07:21:17.392Z,499.10
2022-11-02T07:23:47.244Z,365.93
2022-11-02T07:26:17.166Z,350.57
2022-11-02T07:28:47.286Z,334.83
2022-11-02T07:31:17.134Z,431.37
2022-11-02T07:33:47.004Z,428.33
2022-11-02T07:36:18.150Z,468.57
2022-11-02T07:38:47.931Z,457.20
2022-11-02T07:41:17.710Z,929.03
2022-11-02T07:43:47.519Z,853.63
2022-11-02T07:46:28.247Z,1091.10
2022-11-02T07:48:58.043Z,1119.07
2022-11-02T07:51:29.158Z,1128.03
2022-11-02T07:53:59.602Z,1180.00
2022-11-02T07:56:29.465Z,1215.10
2022-11-02T07:58:59.298Z,800.20
2022-11-02T08:01:29.073Z,2266.67
2022-11-02T08:03:59.212Z,491.13
2022-11-02T08:06:30.315Z,1851.77
2022-11-02T08:09:00.122Z,1215.30
2022-11-02T08:11:29.896Z,1512.73
2022-11-02T08:14:00.049Z,1686.50
2022-11-02T08:16:30.802Z,1717.27
2022-11-02T08:19:00.623Z,1687.97
2022-11-02T08:21:31.743Z,1618.40
2022-11-02T08:24:01.501Z,1772.10
2022-11-02T08:26:31.753Z,1721.03
2022-11-02T08:29:02.935Z,1751.73
2022-11-02T08:31:33.010Z,1516.00
2022-11-02T08:34:02.784Z,1648.77
2022-11-02T08:36:36.732Z,1409.27
2022-11-02T08:39:06.633Z,1245.37
2022-11-02T08:41:36.410Z,754.60
2022-11-02T08:44:06.324Z,1757.87
2022-11-02T08:46:36.091Z,1823.93
2022-11-02T08:49:05.850Z,1834.00
2022-11-02T08:51:38.109Z,1717.93
2022-11-02T08:54:07.859Z,2266.67
2022-11-02T08:56:37.642Z,2266.67
2022-11-02T08:59:07.592Z,1691.57
2022-11-02T09:01:39.038Z,1687.57
2022-11-02T09:04:08.871Z,2266.67
2022-11-02T09:06:39.985Z,1627.67
2022-11-02T09:09:09.890Z,2266.67
2022-11-02T09:11:39.674Z,2266.67
2022-11-02T09:14:09.525Z,2266.67
2022-11-02T09:16:41.728Z,2266.67
2022-11-02T09:19:11.709Z,2266.67
2022-11-02T09:21:42.858Z,2266.67
2022-11-02T09:24:12.620Z,2266.67
2022-11-02T09:26:42.449Z,2266.67
2022-11-02T09:29:12.469Z,2266.67
2022-11-02T09:31:42.269Z,2266.67
2022-11-02T09:34:12.154Z,2266.67
2022-11-02T09:36:43.474Z,2266.67
2022-11-02T09:39:13.265Z,2266.67
2022-11-02T09:41:52.600Z,2266.67
2022-11-02T09:44:29.716Z,2266.67
2022-11-02T09:47:49.661Z,2266.67
2022-11-02T09:49:50.038Z,2266.67
2022-11-02T09:52:26.010Z,2266.67
2022-11-02T09:54:58.063Z,2266.67
2022-11-02T09:57:30.678Z,2266.67
2022-11-02T10:00:00.776Z,2266.67
2022-11-02T10:02:46.450Z,2266.67
2022-11-02T10:05:28.541Z,2266.67
2022-11-02T10:08:11.345Z,2266.67
2022-11-02T10:10:49.460Z,2266.67
2022-11-02T10:13:34.782Z,2266.67
2022-11-02T10:16:11.148Z,2266.67
2022-11-02T10:18:42.894Z,2266.67
2022-11-02T10:21:17.198Z,2266.67
2022-11-02T10:23:52.930Z,2266.67
2022-11-02T10:26:25.103Z,2266.67
2022-11-02T10:28:59.991Z,2266.67
2022-11-02T10:31:32.408Z,2266.67
2022-11-02T10:34:12.465Z,2266.67
2022-11-02T10:36:52.852Z,2266.67
2022-11-02T10:39:32.230Z,2266.67
2022-11-02T10:42:20.692Z,2266.67
2022-11-02T10:45:09.611Z,2266.67
2022-11-02T10:47:46.126Z,2266.67
2022-11-02T10:50:30.363Z,2266.67
2022-11-02T10:53:35.250Z,2266.67
2022-11-02T10:56:02.068Z,2266.67
2022-11-02T10:58:34.640Z,2266.67
2022-11-02T11:01:06.567Z,2266.67
2022-11-02T11:03:54.289Z,2266.67
2022-11-02T11:06:25.107Z,2266.67
2022-11-02T11:09:00.771Z,2266.67
2022-11-02T11:11:35.610Z,2266.67
2022-11-02T11:19:52.120Z,2266.67
2022-11-02T11:22:27.549Z,2266.67
2022-11-02T11:25:27.457Z,2266.67
2022-11-02T11:28:01.470Z,2266.67
2022-11-02T11:30:58.186Z,2266.67
2022-11-02T11:33:23.307Z,2266.67
2022-11-02T11:35:53.492Z,2266.67
2022-11-02T11:38:26.172Z,2266.67
2022-11-02T11:40:59.625Z,2266.67
2022-11-02T11:43:38.367Z,2266.67
2022-11-02T11:46:09.413Z,2266.67
2022-11-02T11:48:41.729Z,2266.67
2022-11-02T11:51:27.325Z,2266.67
2022-11-02T11:54:17.962Z,2266.67
2022-11-02T11:56:48.296Z,2266.67
2022-11-02T11:59:24.185Z,2266.67
2022-11-02T12:01:58.177Z,2266.67
2022-11-02T12:04:34.641Z,2266.67
2022-11-02T12:07:30.416Z,2266.67
2022-11-02T12:10:11.338Z,2266.67
2022-11-02T12:13:04.665Z,2266.67
2022-11-02T12:15:54.640Z,2266.67
2022-11-02T12:18:48.474Z,2266.67
2022-11-02T12:21:37.486Z,2266.67
2022-11-02T12:24:28.962Z,2266.67
2022-11-02T12:27:15.390Z,2266.67
2022-11-02T12:30:19.778Z,2266.67
2022-11-02T12:33:15.715Z,2266.67
2022-11-02T12:35:56.964Z,2266.67
2022-11-02T12:38:44.550Z,2266.67
2022-11-02T12:41:20.807Z,2266.67
2022-11-02T12:43:55.387Z,2266.67
2022-11-02T12:46:38.307Z,2266.67
2022-11-02T12:49:27.871Z,2266.67
2022-11-02T12:52:06.991Z,2266.67
2022-11-02T12:54:42.787Z,2266.67
2022-11-02T12:57:15.420Z,2266.67
2022-11-02T12:59:46.092Z,2266.67
2022-11-02T13:02:27.183Z,2266.67
2022-11-02T13:05:04.820Z,2266.67
2022-11-02T13:07:40.743Z,2266.67
2022-11-02T13:10:17.940Z,2266.67
2022-11-02T13:12:52.246Z,2266.67
2022-11-02T13:15:25.148Z,2266.67
2022-11-02T13:17:58.245Z,2266.67
2022-11-02T13:20:34.615Z,2266.67
2022-11-02T13:23:08.149Z,2266.67
2022-11-02T13:25:41.772Z,2266.67
2022-11-02T13:28:15.461Z,2266.67
2022-11-02T13:30:47.723Z,2266.67
2022-11-02T13:33:22.022Z,2266.67
2022-11-02T13:35:54.252Z,2266.67
2022-11-02T13:38:32.184Z,2266.67
2022-11-02T13:41:20.470Z,2266.67
2022-11-02T13:44:10.640Z,2266.67
2022-11-02T13:46:59.023Z,2266.67
2022-11-02T13:49:32.349Z,2266.67
2022-11-02T13:52:09.383Z,2266.67
2022-11-02T13:54:46.166Z,2266.67
2022-11-02T13:57:30.408Z,2266.67
2022-11-02T14:00:00.762Z,2266.67
2022-11-02T14:02:37.428Z,2266.67
2022-11-02T14:05:09.174Z,2266.67
2022-11-02T14:07:42.247Z,2266.67
2022-11-02T14:10:18.311Z,2266.67
2022-11-02T14:12:49.391Z,2266.67
2022-11-02T14:15:53.604Z,2266.67
2022-11-02T14:18:31.839Z,2266.67
2022-11-02T14:21:42.363Z,2266.67
2022-11-02T14:24:59.557Z,2266.67
2022-11-02T14:27:31.305Z,2266.67
2022-11-02T14:30:01.057Z,2266.67
2022-11-02T14:32:41.560Z,2266.67
2022-11-02T14:35:29.580Z,2266.67
2022-11-02T14:38:15.192Z,2266.67
2022-11-02T14:40:54.500Z,2266.67
2022-11-02T14:43:46.836Z,2266.67
2022-11-02T14:46:30.467Z,2266.67
2022-11-02T14:49:02.767Z,2266.67
2022-11-02T14:51:34.496Z,2266.67
2022-11-02T14:54:15.074Z,2266.67
2022-11-02T14:56:51.881Z,2266.67
2022-11-02T14:59:28.463Z,2266.67
2022-11-02T15:02:01.101Z,2266.67
2022-11-02T15:04:34.315Z,2266.67
2022-11-02T15:07:06.855Z,2266.67
2022-11-02T15:09:58.146Z,2266.67
2022-11-02T15:12:35.599Z,2266.67
2022-11-02T15:15:39.784Z,2266.67
2022-11-02T15:18:35.472Z,2266.67
2022-11-02T15:21:24.609Z,2266.67
2022-11-02T15:24:01.419Z,2266.67
2022-11-02T15:26:41.944Z,2266.67
2022-11-02T15:29:21.004Z,2266.67
2022-11-02T15:31:56.772Z,2266.67
2022-11-02T15:34:35.083Z,2266.67
2022-11-02T15:37:05.655Z,2266.67
2022-11-02T15:39:36.371Z,2266.67
2022-11-02T15:42:16.803Z,2266.67
2022-11-02T15:45:33.947Z,2266.67
2022-11-02T15:48:20.075Z,2266.67
2022-11-02T15:50:57.605Z,2266.67
2022-11-02T15:53:49.893Z,2266.67
2022-11-02T15:56:35.146Z,2266.67
2022-11-02T15:59:21.320Z,2266.67
2022-11-02T16:02:11.811Z,2266.67
2022-11-02T16:04:48.006Z,2266.67
2022-11-02T16:07:18.973Z,2266.67
2022-11-02T16:09:48.988Z,2266.67
2022-11-02T16:12:20.232Z,2266.67
2022-11-02T16:14:55.875Z,2266.67
2022-11-02T16:17:27.317Z,2266.67
2022-11-02T16:20:12.154Z,2266.67
2022-11-02T16:22:43.170Z,2266.67
2022-11-02T16:25:20.591Z,2266.67
2022-11-02T16:27:50.428Z,2266.67
2022-11-02T16:30:22.057Z,2266.67
2022-11-02T16:33:00.407Z,2266.67
2022-11-02T16:35:32.475Z,2266.67
2022-11-02T16:38:04.129Z,2266.67
2022-11-02T16:40:34.276Z,2266.67
2022-11-02T16:43:04.120Z,2266.67
2022-11-02T16:45:40.423Z,2266.67
2022-11-02T16:48:19.229Z,2266.67
2022-11-02T16:51:05.814Z,2266.67
2022-11-02T16:53:37.105Z,2266.67
2022-11-02T16:56:28.325Z,2266.67
2022-11-02T16:59:00.860Z,2266.67
2022-11-02T17:01:35.071Z,2266.67
2022-11-02T17:04:14.027Z,2266.67
2022-11-02T17:06:43.918Z,2266.67
2022-11-02T17:09:22.969Z,2266.67
2022-11-02T17:11:51.929Z,2266.67
2022-11-02T17:14:21.296Z,2266.67
2022-11-02T17:17:00.418Z,2266.67
2022-11-02T17:19:47.482Z,2266.67
2022-11-02T17:22:25.346Z,2266.67
2022-11-02T17:25:13.036Z,2266.67
2022-11-02T17:27:42.541Z,2266.67
2022-11-02T17:30:44.401Z,2266.67
2022-11-02T17:33:23.105Z,2266.67
2022-11-02T17:35:52.876Z,2266.67
2022-11-02T17:38:25.712Z,2266.67
2022-11-02T17:40:54.747Z,2266.67
2022-11-02T17:43:23.138Z,2266.67
2022-11-02T17:45:58.316Z,2266.67
2022-11-02T17:48:28.722Z,2266.67
2022-11-02T17:50:59.592Z,2266.67
2022-11-02T17:53:29.052Z,2266.67
2022-11-02T17:55:57.415Z,2266.67
2022-11-02T17:58:25.257Z,2266.67
2022-11-02T18:00:54.635Z,2266.67
2022-11-02T18:03:25.531Z,2266.67
2022-11-02T18:05:59.783Z,2266.67
2022-11-02T18:08:30.200Z,2266.67
2022-11-02T18:10:58.208Z,2266.67
2022-11-02T18:13:26.192Z,2266.67
2022-11-02T18:15:54.023Z,2266.67
2022-11-02T18:18:21.892Z,2266.67
2022-11-02T18:20:49.727Z,2266.67
2022-11-02T18:23:19.742Z,2266.67
2022-11-02T18:25:50.951Z,2266.67
2022-11-02T18:28:20.704Z,2266.67
2022-11-02T18:30:48.567Z,2266.67
2022-11-02T18:33:16.492Z,2266.67
2022-11-02T18:35:44.432Z,2266.67
2022-11-02T18:38:12.722Z,2266.67
2022-11-02T18:40:40.707Z,2266.67
2022-11-02T18:43:10.220Z,2266.67
2022-11-02T18:45:38.230Z,2266.67
2022-11-02T18:48:06.837Z,2266.67
2022-11-02T18:50:34.838Z,2266.67
2022-11-02T18:53:02.670Z,2266.67
2022-11-02T18:55:30.480Z,2266.67
2022-11-02T18:57:58.746Z,2266.67
2022-11-02T19:00:27.932Z,2266.67
2022-11-02T19:02:55.779Z,2266.67
2022-11-02T19:05:41.312Z,2266.67
2022-11-02T19:08:27.971Z,2266.67
2022-11-02T19:10:55.806Z,2266.67
2022-11-02T19:13:23.652Z,2266.67
2022-11-02T19:15:52.873Z,2266.67
2022-11-02T19:18:20.713Z,2266.67
2022-11-02T19:20:48.579Z,2266.67
2022-11-02T19:23:16.474Z,2266.67
2022-11-02T19:25:51.377Z,2266.67
2022-11-02T19:28:19.251Z,2266.67
2022-11-02T19:30:47.127Z,2266.67
2022-11-02T19:33:16.368Z,2266.67
2022-11-02T19:35:44.239Z,2266.67
2022-11-02T19:38:12.103Z,2266.67
2022-11-02T19:40:39.916Z,2266.67
2022-11-02T19:43:08.235Z,2266.67
2022-11-02T19:45:36.219Z,2266.67
2022-11-02T19:48:04.626Z,2266.67
2022-11-02T19:50:34.117Z,2266.67
2022-11-02T19:53:01.976Z,2266.67
2022-11-02T19:55:29.902Z,2266.67
2022-11-02T19:57:57.761Z,2266.67
2022-11-02T20:00:25.647Z,2266.67
2022-11-02T20:02:53.715Z,2266.67
2022-11-02T20:05:21.641Z,2266.67
2022-11-02T20:07:52.518Z,2266.67
2022-11-02T20:10:20.419Z,2266.67
2022-11-02T20:12:48.276Z,2266.67
2022-11-02T20:15:16.195Z,2266.67
2022-11-02T20:18:05.467Z,2266.67
2022-11-02T20:20:31.929Z,2266.67
2022-11-02T20:23:01.378Z,2266.67
2022-11-02T20:25:29.217Z,2266.67
2022-11-02T20:27:57.116Z,2266.67
2022-11-02T20:30:24.985Z,2266.67
2022-11-02T20:32:52.824Z,2266.67
2022-11-02T20:35:24.635Z,2266.67
2022-11-02T20:37:52.781Z,2266.67
2022-11-02T20:40:22.497Z,2266.67
2022-11-02T20:42:50.641Z,2266.67
2022-11-02T20:45:18.862Z,2266.67
2022-11-02T20:47:46.724Z,2266.67
2022-11-02T20:50:16.610Z,2266.67
2022-11-02T20:52:46.405Z,2266.67
2022-11-02T20:55:14.237Z,2266.67
2022-11-02T20:57:43.453Z,2266.67
2022-11-02T21:00:13.212Z,2266.67
2022-11-02T21:02:41.100Z,2266.67
2022-11-02T21:05:09.820Z,2266.67
2022-11-02T21:07:37.844Z,2266.67
2022-11-02T21:10:06.875Z,2266.67
2022-11-02T21:12:52.592Z,2266.67
2022-11-02T21:15:21.863Z,2266.67
2022-11-02T21:17:49.833Z,2266.67
2022-11-02T21:20:33.533Z,2266.67
2022-11-02T21:23:02.483Z,2266.67
2022-11-02T21:25:30.598Z,2266.67
2022-11-02T21:27:58.610Z,2266.67
2022-11-02T21:30:28.555Z,2266.67
2022-11-02T21:32:56.392Z,2266.67
2022-11-02T21:35:25.005Z,2266.67
2022-11-02T21:37:56.750Z,2266.67
2022-11-02T21:40:24.915Z,2266.67
2022-11-02T21:42:52.763Z,2266.67
2022-11-02T21:45:25.212Z,2266.67
2022-11-02T21:47:55.529Z,2266.67
2022-11-02T21:50:23.602Z,2266.67
2022-11-02T21:52:51.472Z,2266.67
2022-11-02T21:55:19.504Z,2266.67
2022-11-02T21:57:47.399Z,2266.67
2022-11-02T22:00:16.368Z,2266.67
2022-11-02T22:02:43.300Z,2266.67
2022-11-02T22:05:32.609Z,2266.67
2022-11-02T22:08:18.115Z,2266.67
2022-11-02T22:10:45.976Z,2266.67
2022-11-02T22:13:31.563Z,2266.67
2022-11-02T22:15:59.350Z,2266.67
2022-11-02T22:18:27.179Z,2266.67
2022-11-02T22:20:58.327Z,2266.67
2022-11-02T22:23:26.216Z,2266.67
2022-11-02T22:25:58.368Z,2266.67
2022-11-02T22:28:30.215Z,2266.67
2022-11-02T22:30:58.196Z,2266.67
2022-11-02T22:33:26.805Z,2266.67
2022-11-02T22:35:56.185Z,2266.67
2022-11-02T22:38:41.510Z,2266.67
2022-11-02T22:41:09.339Z,2266.67
2022-11-02T22:43:37.198Z,2266.67
2022-11-02T22:46:06.912Z,2266.67
2022-11-02T22:48:35.497Z,2266.67
2022-11-02T22:51:06.110Z,2266.67
2022-11-02T22:53:34.221Z,2266.67
2022-11-02T22:56:03.498Z,2266.67
2022-11-02T22:58:33.909Z,2266.67
2022-11-02T23:01:02.075Z,2266.67
2022-11-02T23:03:31.966Z,2266.67
2022-11-02T23:06:00.205Z,2266.67
2022-11-02T23:08:30.294Z,2266.67
2022-11-02T23:11:17.083Z,2266.67
2022-11-02T23:13:46.697Z,2266.67
2022-11-02T23:16:22.062Z,2266.67
2022-11-02T23:19:18.992Z,2266.67
2022-11-02T23:22:14.017Z,2266.67
2022-11-02T23:25:01.949Z,2266.67
2022-11-02T23:27:30.114Z,2266.67
2022-11-02T23:30:15.364Z,2266.67
2022-11-02T23:32:43.229Z,2266.67
2022-11-02T23:35:28.666Z,2266.67
2022-11-02T23:38:04.545Z,2266.67
2022-11-02T23:40:34.066Z,2266.67
2022-11-02T23:43:03.121Z,2266.67
2022-11-02T23:45:31.139Z,2266.67
2022-11-02T23:48:00.753Z,2266.67
2022-11-02T23:50:48.907Z,2266.67
2022-11-02T23:53:36.659Z,2266.67
2022-11-02T23:56:25.540Z,2266.67
2022-11-02T23:59:07.145Z,2266.67
